Skip to main content.
Our real time weather data display below is updated continuously via our 24/7 live data feed.
 TIME   TEMPERATURE   WINDSPEED   DIRECTION   HUMIDITY   BAROMETER   RAINFALL 
3:30 15.0°C (59.0°F) 24.1 kmh (15.0 mph) NW 62% 1021.0hPa (30.15 inHg) 0.0mm (0.00 in.)
2:30 16.0°C (60.8 °F) 24.1 kmh (15.0 mph) NW 55% 1021.0hPa (30.15 inHg) 0.0mm (0.00 in.)
1:30 15.0°C (59.0 °F) 22.2 kmh (13.8 mph) NNW 58% 1022.0hPa (30.18 inHg) 0.0mm (0.00 in.)
12:30 14.0°C (57.2 °F) 20.4 kmh (12.7 mph) NNW 62% 1023.0hPa (30.21 inHg) 0.0mm (0.00 in.)
11:30 15.0°C (59.0 °F) 18.5 kmh (11.5 mph) NNW 62% 1024.0hPa (30.24 inHg) 0.0mm (0.00 in.)
10:30 14.0°C (57.2 °F) 11.1 kmh (6.9 mph) NW 71% 1024.0hPa (30.24 inHg) 0.0mm (0.00 in.)
9:30 13.0°C (55.4 °F) 7.4 kmh (4.6 mph) WNW 76% 1024.0hPa (30.24 inHg) 0.0mm (0.00 in.)
8:30 10.0°C (50.0 °F) 11.1 kmh (6.9 mph) WNW 87% 1025.1hPa (30.27 inHg) 0.0mm (0.00 in.)
7:30 8.0°C (46.4 °F) 9.3 kmh (5.8 mph) WNW 93% 1025.1hPa (30.27 inHg) 0.0mm (0.00 in.)
6:30 9.0°C (48.2 °F) 7.4 kmh (4.6 mph) WNW 87% 1025.1hPa (30.27 inHg) 0.0mm (0.00 in.)
5:30 9.0°C (48.2 °F) 9.3 kmh (5.8 mph) WNW 87% 1025.1hPa (30.27 inHg) 0.0mm (0.00 in.)
4:30 10.0°C (50.0 °F) 9.3 kmh (5.8 mph) WNW 87% 1026.1hPa (30.30 inHg) 0.0mm (0.00 in.)
3:30 9.0°C (48.2 °F) 11.1 kmh (6.9 mph) WNW 93% 1026.1hPa (30.30 inHg) 0.0mm (0.00 in.)
2:30 10.0°C (50.0 °F) 11.1 kmh (6.9 mph) WNW 87% 1027.1hPa (30.33 inHg) 0.0mm (0.00 in.)
1:30 9.0°C (48.2 °F) 7.4 kmh (4.6 mph) WNW 87% 1027.1hPa (30.33 inHg) 0.0mm (0.00 in.)
12:30 9.0°C (48.2 °F) 9.3 kmh (5.8 mph) WNW 93% 1027.1hPa (30.33 inHg) 0.0mm (0.00 in.)
11:30 10.0°C (50.0 °F) 7.4 kmh (4.6 mph) WNW 87% 1027.1hPa (30.33 inHg) 0.0mm (0.00 in.)
10:30 10.0°C (50.0 °F) 7.4 kmh (4.6 mph) W 87% 1027.1hPa (30.33 inHg) 0.0mm (0.00 in.)
9:30 10.0°C (50.0 °F) 5.6 kmh (3.5 mph) W 87% 1027.1hPa (30.33 inHg) 0.0mm (0.00 in.)
8:30 10.0°C (50.0 °F) 5.6 kmh (3.5 mph) NW 87% 1027.1hPa (30.33 inHg) 0.0mm (0.00 in.)
7:30 12.0°C (53.6 °F) 3.7 kmh (2.3 mph) WNW 76% 1027.1hPa (30.33 inHg) 0.0mm (0.00 in.)
6:30 13.0°C (55.4 °F) 7.4 kmh (4.6 mph) N 76% 1026.1hPa (30.30 inHg) 0.0mm (0.00 in.)
5:30 14.0°C (57.2 °F) 7.4 kmh (4.6 mph) NE 71% 1026.1hPa (30.30 inHg) 0.0mm (0.00 in.)
4:30 14.0°C (57.2 °F) 9.3 kmh (5.8 mph) NE 71% 1026.1hPa (30.30 inHg) 0.0mm (0.00 in.)